sensor_id;sensor_type;location;lat;lon;timestamp;pressure;altitude;pressure_sealevel;temperature;humidity
21273;BME280;36726;52.328;10.552;2022-07-25T00:01:41;100434.16;;;21.27;52.58
21273;BME280;36726;52.328;10.552;2022-07-25T00:04:08;100430.75;;;21.22;52.93
21273;BME280;36726;52.328;10.552;2022-07-25T00:06:38;100414.78;;;21.16;53.11
21273;BME280;36726;52.328;10.552;2022-07-25T00:09:05;100410.44;;;21.12;53.55
21273;BME280;36726;52.328;10.552;2022-07-25T00:11:32;100415.97;;;21.08;53.56
21273;BME280;36726;52.328;10.552;2022-07-25T00:13:59;100401.81;;;21.03;53.88
21273;BME280;36726;52.328;10.552;2022-07-25T00:16:25;100400.09;;;21.00;53.89
21273;BME280;36726;52.328;10.552;2022-07-25T00:18:52;100393.94;;;20.95;53.89
21273;BME280;36726;52.328;10.552;2022-07-25T00:21:19;100390.53;;;20.90;54.20
21273;BME280;36726;52.328;10.552;2022-07-25T00:23:45;100393.34;;;20.86;54.14
21273;BME280;36726;52.328;10.552;2022-07-25T00:26:12;100383.59;;;20.83;53.79
21273;BME280;36726;52.328;10.552;2022-07-25T00:28:40;100376.53;;;20.79;53.87
21273;BME280;36726;52.328;10.552;2022-07-25T00:31:06;100373.03;;;20.77;53.53
21273;BME280;36726;52.328;10.552;2022-07-25T00:33:33;100383.00;;;20.74;53.67
21273;BME280;36726;52.328;10.552;2022-07-25T00:36:00;100385.72;;;20.72;53.60
21273;BME280;36726;52.328;10.552;2022-07-25T00:38:26;100379.56;;;20.69;53.77
21273;BME280;36726;52.328;10.552;2022-07-25T00:40:53;100382.28;;;20.67;53.94
21273;BME280;36726;52.328;10.552;2022-07-25T00:43:21;100378.78;;;20.65;53.47
21273;BME280;36726;52.328;10.552;2022-07-25T00:45:48;100370.81;;;20.62;53.27
21273;BME280;36726;52.328;10.552;2022-07-25T00:48:14;100369.06;;;20.61;53.22
21273;BME280;36726;52.328;10.552;2022-07-25T00:50:41;100369.97;;;20.60;53.20
21273;BME280;36726;52.328;10.552;2022-07-25T00:53:08;100366.47;;;20.58;52.98
21273;BME280;36726;52.328;10.552;2022-07-25T00:55:35;100365.63;;;20.56;53.07
21273;BME280;36726;52.328;10.552;2022-07-25T00:58:02;100368.31;;;20.56;53.04
21273;BME280;36726;52.328;10.552;2022-07-25T01:00:29;100363.84;;;20.55;53.03
21273;BME280;36726;52.328;10.552;2022-07-25T01:02:56;100354.91;;;20.54;52.93
21273;BME280;36726;52.328;10.552;2022-07-25T01:05:23;100362.13;;;20.54;52.79
21273;BME280;36726;52.328;10.552;2022-07-25T01:07:50;100357.66;;;20.53;52.97
21273;BME280;36726;52.328;10.552;2022-07-25T01:10:17;100348.75;;;20.51;52.94
21273;BME280;36726;52.328;10.552;2022-07-25T01:12:50;100348.75;;;20.51;52.77
21273;BME280;36726;52.328;10.552;2022-07-25T01:15:19;100348.75;;;20.51;52.77
21273;BME280;36726;52.328;10.552;2022-07-25T01:17:46;100347.00;;;20.50;52.57
21273;BME280;36726;52.328;10.552;2022-07-25T01:20:14;100341.69;;;20.48;52.74
21273;BME280;36726;52.328;10.552;2022-07-25T01:22:42;100339.00;;;20.48;52.59
21273;BME280;36726;52.328;10.552;2022-07-25T01:25:10;100338.09;;;20.48;52.60
21273;BME280;36726;52.328;10.552;2022-07-25T01:27:37;100335.38;;;20.49;52.34
21273;BME280;36726;52.328;10.552;2022-07-25T01:30:06;100338.94;;;20.50;52.61
21273;BME280;36726;52.328;10.552;2022-07-25T01:32:34;100332.69;;;20.49;52.33
21273;BME280;36726;52.328;10.552;2022-07-25T01:35:03;100329.13;;;20.49;52.26
21273;BME280;36726;52.328;10.552;2022-07-25T01:37:30;100332.63;;;20.51;52.31
21273;BME280;36726;52.328;10.552;2022-07-25T01:39:56;100323.66;;;20.52;52.33
21273;BME280;36726;52.328;10.552;2022-07-25T01:42:23;100323.66;;;20.52;52.11
21273;BME280;36726;52.328;10.552;2022-07-25T01:44:49;100325.41;;;20.53;52.02
21273;BME280;36726;52.328;10.552;2022-07-25T01:47:16;100325.41;;;20.53;52.16
21273;BME280;36726;52.328;10.552;2022-07-25T01:49:43;100316.50;;;20.51;51.84
21273;BME280;36726;52.328;10.552;2022-07-25T01:52:10;100308.41;;;20.52;52.01
21273;BME280;36726;52.328;10.552;2022-07-25T01:54:38;100319.13;;;20.54;51.91
21273;BME280;36726;52.328;10.552;2022-07-25T01:57:05;100315.59;;;20.52;52.02
21273;BME280;36726;52.328;10.552;2022-07-25T01:59:32;100323.66;;;20.52;51.84
21273;BME280;36726;52.328;10.552;2022-07-25T02:01:58;100313.81;;;20.51;52.08
21273;BME280;36726;52.328;10.552;2022-07-25T02:04:25;100314.81;;;20.48;51.79
21273;BME280;36726;52.328;10.552;2022-07-25T02:06:51;100311.25;;;20.48;51.78
21273;BME280;36726;52.328;10.552;2022-07-25T02:09:18;100304.13;;;20.45;51.56
21273;BME280;36726;52.328;10.552;2022-07-25T02:11:44;100310.47;;;20.44;51.87
21273;BME280;36726;52.328;10.552;2022-07-25T02:14:11;100301.56;;;20.42;51.96
21273;BME280;36726;52.328;10.552;2022-07-25T02:16:38;100298.03;;;20.40;51.94
21273;BME280;36726;52.328;10.552;2022-07-25T02:19:04;100293.66;;;20.38;51.88
21273;BME280;36726;52.328;10.552;2022-07-25T02:21:31;100294.56;;;20.37;51.81
21273;BME280;36726;52.328;10.552;2022-07-25T02:23:58;100291.00;;;20.36;52.00
21273;BME280;36726;52.328;10.552;2022-07-25T02:26:24;100290.13;;;20.36;51.90
21273;BME280;36726;52.328;10.552;2022-07-25T02:28:51;100285.72;;;20.33;51.93
21273;BME280;36726;52.328;10.552;2022-07-25T02:31:18;100283.09;;;20.32;52.21
21273;BME280;36726;52.328;10.552;2022-07-25T02:33:45;100285.84;;;20.30;52.09
21273;BME280;36726;52.328;10.552;2022-07-25T02:36:11;100285.88;;;20.29;52.29
21273;BME280;36726;52.328;10.552;2022-07-25T02:38:38;100284.13;;;20.28;52.41
21273;BME280;36726;52.328;10.552;2022-07-25T02:41:05;100284.16;;;20.26;52.51
21273;BME280;36726;52.328;10.552;2022-07-25T02:43:31;100272.59;;;20.24;52.44
21273;BME280;36726;52.328;10.552;2022-07-25T02:45:58;100269.00;;;20.24;52.40
21273;BME280;36726;52.328;10.552;2022-07-25T02:48:25;100262.78;;;20.23;52.37
21273;BME280;36726;52.328;10.552;2022-07-25T02:50:52;100249.41;;;20.22;52.39
21273;BME280;36726;52.328;10.552;2022-07-25T02:53:18;100244.94;;;20.21;52.50
21273;BME280;36726;52.328;10.552;2022-07-25T02:56:05;100243.19;;;20.20;52.24
21273;BME280;36726;52.328;10.552;2022-07-25T02:58:31;100236.09;;;20.17;52.46
21273;BME280;36726;52.328;10.552;2022-07-25T03:00:58;100232.56;;;20.15;52.82
21273;BME280;36726;52.328;10.552;2022-07-25T03:03:25;100235.28;;;20.14;52.64
21273;BME280;36726;52.328;10.552;2022-07-25T03:05:52;100237.13;;;20.12;52.86
21273;BME280;36726;52.328;10.552;2022-07-25T03:08:18;100242.50;;;20.12;52.90
21273;BME280;36726;52.328;10.552;2022-07-25T03:10:45;100246.13;;;20.11;53.20
21273;BME280;36726;52.328;10.552;2022-07-25T03:13:11;100245.25;;;20.10;53.39
21273;BME280;36726;52.328;10.552;2022-07-25T03:15:38;100233.72;;;20.07;53.28
21273;BME280;36726;52.328;10.552;2022-07-25T03:18:04;100232.94;;;20.03;53.19
21273;BME280;36726;52.328;10.552;2022-07-25T03:20:31;100232.16;;;20.00;53.55
21273;BME280;36726;52.328;10.552;2022-07-25T03:22:58;100234.91;;;19.98;53.46
21273;BME280;36726;52.328;10.552;2022-07-25T03:25:24;100229.53;;;19.97;53.38
21273;BME280;36726;52.328;10.552;2022-07-25T03:27:51;100225.22;;;19.93;53.58
21273;BME280;36726;52.328;10.552;2022-07-25T03:30:17;100221.69;;;19.91;53.64
21273;BME280;36726;52.328;10.552;2022-07-25T03:32:44;100228.09;;;19.87;53.71
21273;BME280;36726;52.328;10.552;2022-07-25T03:35:10;100220.13;;;19.84;53.74
21273;BME280;36726;52.328;10.552;2022-07-25T03:37:37;100216.63;;;19.82;53.96
21273;BME280;36726;52.328;10.552;2022-07-25T03:40:04;100209.53;;;19.79;54.10
21273;BME280;36726;52.328;10.552;2022-07-25T03:42:31;100209.56;;;19.78;54.68
21273;BME280;36726;52.328;10.552;2022-07-25T03:45:00;100200.69;;;19.76;54.52
21273;BME280;36726;52.328;10.552;2022-07-25T03:47:27;100202.59;;;19.72;54.83
21273;BME280;36726;52.328;10.552;2022-07-25T03:49:54;100200.78;;;19.73;54.83
21273;BME280;36726;52.328;10.552;2022-07-25T03:52:20;100199.06;;;19.70;55.16
21273;BME280;36726;52.328;10.552;2022-07-25T03:54:47;100199.13;;;19.69;55.18
21273;BME280;36726;52.328;10.552;2022-07-25T03:57:13;100187.50;;;19.68;55.94
21273;BME280;36726;52.328;10.552;2022-07-25T03:59:40;100194.69;;;19.68;56.11
21273;BME280;36726;52.328;10.552;2022-07-25T04:02:06;100192.97;;;19.65;56.49
21273;BME280;36726;52.328;10.552;2022-07-25T04:04:33;100185.81;;;19.66;56.80
21273;BME280;36726;52.328;10.552;2022-07-25T04:07:00;100190.22;;;19.67;57.19
21273;BME280;36726;52.328;10.552;2022-07-25T04:09:26;100192.91;;;19.67;57.29
21273;BME280;36726;52.328;10.552;2022-07-25T04:11:58;100191.06;;;19.69;57.06
21273;BME280;36726;52.328;10.552;2022-07-25T04:14:25;100189.25;;;19.69;57.11
21273;BME280;36726;52.328;10.552;2022-07-25T04:16:51;100181.22;;;19.69;57.43
21273;BME280;36726;52.328;10.552;2022-07-25T04:19:18;100179.31;;;19.73;57.72
21273;BME280;36726;52.328;10.552;2022-07-25T04:22:13;100175.69;;;19.74;58.28
21273;BME280;36726;52.328;10.552;2022-07-25T04:24:39;100176.47;;;19.77;58.20
21273;BME280;36726;52.328;10.552;2022-07-25T04:27:06;100177.25;;;19.81;58.36
21273;BME280;36726;52.328;10.552;2022-07-25T04:29:33;100168.31;;;19.82;58.59
21273;BME280;36726;52.328;10.552;2022-07-25T04:31:59;100169.13;;;19.84;58.60
21273;BME280;36726;52.328;10.552;2022-07-25T04:34:26;100163.66;;;19.87;58.79
21273;BME280;36726;52.328;10.552;2022-07-25T04:36:52;100166.22;;;19.91;59.30
21273;BME280;36726;52.328;10.552;2022-07-25T04:39:19;100170.59;;;19.94;59.41
21273;BME280;36726;52.328;10.552;2022-07-25T04:41:45;100161.56;;;19.96;59.26
21273;BME280;36726;52.328;10.552;2022-07-25T04:44:12;100162.34;;;20.00;59.10
21273;BME280;36726;52.328;10.552;2022-07-25T04:46:39;100159.56;;;20.03;59.14
21273;BME280;36726;52.328;10.552;2022-07-25T04:49:05;100150.50;;;20.07;59.53
21273;BME280;36726;52.328;10.552;2022-07-25T04:51:32;100145.91;;;20.10;59.84
21273;BME280;36726;52.328;10.552;2022-07-25T04:53:59;100139.50;;;20.14;60.40
21273;BME280;36726;52.328;10.552;2022-07-25T04:56:26;100134.06;;;20.17;59.98
21273;BME280;36726;52.328;10.552;2022-07-25T04:58:52;100138.34;;;20.23;60.36
21273;BME280;36726;52.328;10.552;2022-07-25T05:01:19;100134.63;;;20.27;60.18
21273;BME280;36726;52.328;10.552;2022-07-25T05:03:45;100131.78;;;20.31;60.11
21273;BME280;36726;52.328;10.552;2022-07-25T05:06:17;100123.59;;;20.36;59.49
21273;BME280;36726;52.328;10.552;2022-07-25T05:08:44;100126.97;;;20.41;59.07
21273;BME280;36726;52.328;10.552;2022-07-25T05:11:10;100127.63;;;20.47;59.07
21273;BME280;36726;52.328;10.552;2022-07-25T05:13:37;100122.06;;;20.53;58.95
21273;BME280;36726;52.328;10.552;2022-07-25T05:16:04;100127.25;;;20.59;59.04
21273;BME280;36726;52.328;10.552;2022-07-25T05:18:32;100124.25;;;20.67;59.18
21273;BME280;36726;52.328;10.552;2022-07-25T05:20:59;100116.94;;;20.72;59.03
21273;BME280;36726;52.328;10.552;2022-07-25T05:23:25;100114.88;;;20.79;58.72
21273;BME280;36726;52.328;10.552;2022-07-25T05:25:52;100114.69;;;20.85;58.98
21273;BME280;36726;52.328;10.552;2022-07-25T05:28:18;100109.88;;;20.93;59.39
21273;BME280;36726;52.328;10.552;2022-07-25T05:30:45;100097.16;;;20.99;59.22
21273;BME280;36726;52.328;10.552;2022-07-25T05:33:11;100103.09;;;21.07;58.88
21273;BME280;36726;52.328;10.552;2022-07-25T05:35:38;100099.16;;;21.17;58.91
21273;BME280;36726;52.328;10.552;2022-07-25T05:38:04;100095.16;;;21.27;58.67
21273;BME280;36726;52.328;10.552;2022-07-25T05:40:31;100090.25;;;21.38;57.93
21273;BME280;36726;52.328;10.552;2022-07-25T05:42:58;100091.63;;;21.48;57.34
21273;BME280;36726;52.328;10.552;2022-07-25T05:45:29;100093.94;;;21.59;56.69
21273;BME280;36726;52.328;10.552;2022-07-25T05:47:56;100087.16;;;21.71;56.67
21273;BME280;36726;52.328;10.552;2022-07-25T05:50:22;100077.69;;;21.84;56.47
21273;BME280;36726;52.328;10.552;2022-07-25T05:52:49;100076.34;;;21.95;56.40
21273;BME280;36726;52.328;10.552;2022-07-25T05:55:15;100081.13;;;22.09;56.22
21273;BME280;36726;52.328;10.552;2022-07-25T05:57:42;100079.75;;;22.20;55.28
21273;BME280;36726;52.328;10.552;2022-07-25T06:00:09;100080.97;;;22.33;55.11
21273;BME280;36726;52.328;10.552;2022-07-25T06:02:36;100072.44;;;22.44;54.86
21273;BME280;36726;52.328;10.552;2022-07-25T06:05:03;100071.88;;;22.57;54.42
21273;BME280;36726;52.328;10.552;2022-07-25T06:07:30;100074.88;;;22.70;53.99
21273;BME280;36726;52.328;10.552;2022-07-25T06:09:56;100067.94;;;22.85;53.47
21273;BME280;36726;52.328;10.552;2022-07-25T06:12:23;100061.97;;;22.97;53.25
21273;BME280;36726;52.328;10.552;2022-07-25T06:14:50;100058.78;;;23.07;52.99
21273;BME280;36726;52.328;10.552;2022-07-25T06:17:16;100058.34;;;23.16;53.08
21273;BME280;36726;52.328;10.552;2022-07-25T06:19:43;100061.44;;;23.27;52.38
21273;BME280;36726;52.328;10.552;2022-07-25T06:22:10;100055.63;;;23.36;52.16
21273;BME280;36726;52.328;10.552;2022-07-25T06:24:37;100044.41;;;23.45;52.11
21273;BME280;36726;52.328;10.552;2022-07-25T06:27:05;100043.97;;;23.54;51.96
21273;BME280;36726;52.328;10.552;2022-07-25T06:29:32;100047.19;;;23.62;51.84
21273;BME280;36726;52.328;10.552;2022-07-25T06:31:59;100044.03;;;23.72;51.38
21273;BME280;36726;52.328;10.552;2022-07-25T06:34:25;100046.28;;;23.81;51.01
21273;BME280;36726;52.328;10.552;2022-07-25T06:36:54;100048.59;;;23.88;50.40
21273;BME280;36726;52.328;10.552;2022-07-25T06:39:23;100048.06;;;23.99;50.52
21273;BME280;36726;52.328;10.552;2022-07-25T06:41:50;100037.72;;;24.08;50.50
21273;BME280;36726;52.328;10.552;2022-07-25T06:44:16;100038.19;;;24.16;50.50
21273;BME280;36726;52.328;10.552;2022-07-25T06:46:43;100035.09;;;24.24;50.00
21273;BME280;36726;52.328;10.552;2022-07-25T06:49:09;100031.03;;;24.32;49.63
21273;BME280;36726;52.328;10.552;2022-07-25T06:51:36;100029.53;;;24.44;49.53
21273;BME280;36726;52.328;10.552;2022-07-25T06:54:03;100023.56;;;24.54;49.62
21273;BME280;36726;52.328;10.552;2022-07-25T06:56:30;100019.41;;;24.64;49.61
21273;BME280;36726;52.328;10.552;2022-07-25T06:58:58;100023.31;;;24.76;49.42
21273;BME280;36726;52.328;10.552;2022-07-25T07:01:25;100016.41;;;24.88;49.53
21273;BME280;36726;52.328;10.552;2022-07-25T07:03:52;100009.41;;;24.99;48.95
21273;BME280;36726;52.328;10.552;2022-07-25T07:06:19;100019.41;;;25.14;48.72
21273;BME280;36726;52.328;10.552;2022-07-25T07:08:45;100009.81;;;25.24;48.13
21273;BME280;36726;52.328;10.552;2022-07-25T07:11:12;100005.50;;;25.37;48.07
21273;BME280;36726;52.328;10.552;2022-07-25T07:13:40;100014.78;;;25.49;48.14
21273;BME280;36726;52.328;10.552;2022-07-25T07:16:07;100009.34;;;25.64;47.32
21273;BME280;36726;52.328;10.552;2022-07-25T07:18:34;100000.41;;;25.78;47.51
21273;BME280;36726;52.328;10.552;2022-07-25T07:21:00;99994.19;;;25.92;47.25
21273;BME280;36726;52.328;10.552;2022-07-25T07:23:27;100000.56;;;26.06;46.85
21273;BME280;36726;52.328;10.552;2022-07-25T07:25:54;99993.38;;;26.21;46.53
21273;BME280;36726;52.328;10.552;2022-07-25T07:28:21;99997.09;;;26.34;45.63
21273;BME280;36726;52.328;10.552;2022-07-25T07:30:48;99989.06;;;26.46;45.69
21273;BME280;36726;52.328;10.552;2022-07-25T07:33:36;99982.97;;;26.57;46.30
21273;BME280;36726;52.328;10.552;2022-07-25T07:36:03;99982.59;;;26.63;46.42
21273;BME280;36726;52.328;10.552;2022-07-25T07:38:30;99983.03;;;26.71;45.53
21273;BME280;36726;52.328;10.552;2022-07-25T07:40:56;99983.41;;;26.79;45.89
21273;BME280;36726;52.328;10.552;2022-07-25T07:43:23;99969.25;;;26.88;45.40
21273;BME280;36726;52.328;10.552;2022-07-25T07:45:56;99976.06;;;26.95;45.89
21273;BME280;36726;52.328;10.552;2022-07-25T07:48:27;99966.56;;;27.02;45.74
21273;BME280;36726;52.328;10.552;2022-07-25T07:50:54;99969.84;;;27.07;44.14
21273;BME280;36726;52.328;10.552;2022-07-25T07:53:21;99967.41;;;27.17;44.48
21273;BME280;36726;52.328;10.552;2022-07-25T07:55:47;99961.28;;;27.27;43.67
21273;BME280;36726;52.328;10.552;2022-07-25T07:58:20;99964.22;;;27.38;44.08
21273;BME280;36726;52.328;10.552;2022-07-25T08:00:48;99967.16;;;27.48;44.06
21273;BME280;36726;52.328;10.552;2022-07-25T08:03:18;99952.78;;;27.60;43.81
21273;BME280;36726;52.328;10.552;2022-07-25T08:05:47;99954.78;;;27.71;43.97
21273;BME280;36726;52.328;10.552;2022-07-25T08:08:15;99945.81;;;27.83;43.78
21273;BME280;36726;52.328;10.552;2022-07-25T08:10:43;99952.75;;;28.01;43.35
21273;BME280;36726;52.328;10.552;2022-07-25T08:13:14;99944.72;;;28.12;41.95
21273;BME280;36726;52.328;10.552;2022-07-25T08:15:42;99945.63;;;28.25;42.44
21273;BME280;36726;52.328;10.552;2022-07-25T08:18:09;99933.22;;;28.33;42.59
21273;BME280;36726;52.328;10.552;2022-07-25T08:20:44;99932.34;;;28.45;42.15
21273;BME280;36726;52.328;10.552;2022-07-25T08:23:11;99931.06;;;28.63;42.13
21273;BME280;36726;52.328;10.552;2022-07-25T08:25:39;99925.44;;;28.79;40.16
21273;BME280;36726;52.328;10.552;2022-07-25T08:28:06;99918.53;;;28.99;40.92
21273;BME280;36726;52.328;10.552;2022-07-25T08:30:34;99918.41;;;29.13;41.42
21273;BME280;36726;52.328;10.552;2022-07-25T08:33:03;99915.03;;;29.22;40.86
21273;BME280;36726;52.328;10.552;2022-07-25T08:35:31;99920.34;;;29.23;39.48
21273;BME280;36726;52.328;10.552;2022-07-25T08:37:58;99910.34;;;29.24;40.51
21273;BME280;36726;52.328;10.552;2022-07-25T08:40:28;99909.00;;;29.29;40.82
21273;BME280;36726;52.328;10.552;2022-07-25T08:42:55;99902.13;;;29.36;40.26
21273;BME280;36726;52.328;10.552;2022-07-25T08:45:22;99900.44;;;29.46;40.32
21273;BME280;36726;52.328;10.552;2022-07-25T08:47:50;99906.69;;;29.59;38.83
21273;BME280;36726;52.328;10.552;2022-07-25T08:50:20;99900.00;;;29.76;39.04
21273;BME280;36726;52.328;10.552;2022-07-25T08:52:48;99898.19;;;29.88;38.13
21273;BME280;36726;52.328;10.552;2022-07-25T08:55:18;99900.44;;;29.94;38.55
21273;BME280;36726;52.328;10.552;2022-07-25T08:57:51;99899.16;;;29.87;38.46
21273;BME280;36726;52.328;10.552;2022-07-25T09:00:20;99907.47;;;29.85;38.16
21273;BME280;36726;52.328;10.552;2022-07-25T09:02:59;99892.00;;;29.86;36.83
21273;BME280;36726;52.328;10.552;2022-07-25T09:05:28;99897.31;;;29.87;37.77
21273;BME280;36726;52.328;10.552;2022-07-25T09:07:56;99906.38;;;29.88;38.01
21273;BME280;36726;52.328;10.552;2022-07-25T09:10:25;99892.22;;;29.83;37.74
21273;BME280;36726;52.328;10.552;2022-07-25T09:12:58;99891.94;;;29.75;37.82
21273;BME280;36726;52.328;10.552;2022-07-25T09:15:30;99888.75;;;29.68;38.08
21273;BME280;36726;52.328;10.552;2022-07-25T09:18:00;99889.88;;;29.66;38.60
21273;BME280;36726;52.328;10.552;2022-07-25T09:20:48;99888.13;;;29.64;38.08
21273;BME280;36726;52.328;10.552;2022-07-25T09:26:13;99880.91;;;29.76;38.12
21273;BME280;36726;52.328;10.552;2022-07-25T09:31:10;99877.53;;;29.96;37.78
21273;BME280;36726;52.328;10.552;2022-07-25T09:33:45;99879.66;;;30.04;37.58
21273;BME280;36726;52.328;10.552;2022-07-25T09:36:13;99872.47;;;30.14;37.88
21273;BME280;36726;52.328;10.552;2022-07-25T09:38:59;99873.63;;;30.11;37.91
21273;BME280;36726;52.328;10.552;2022-07-25T09:41:36;99865.66;;;30.08;38.33
21273;BME280;36726;52.328;10.552;2022-07-25T09:44:14;99863.78;;;30.09;37.53
21273;BME280;36726;52.328;10.552;2022-07-25T09:46:42;99866.06;;;30.15;37.88
21273;BME280;36726;52.328;10.552;2022-07-25T09:49:09;99861.22;;;30.18;37.88
21273;BME280;36726;52.328;10.552;2022-07-25T09:51:40;99867.84;;;30.27;38.45
21273;BME280;36726;52.328;10.552;2022-07-25T09:54:07;99860.53;;;30.27;37.99
21273;BME280;36726;52.328;10.552;2022-07-25T09:56:35;99861.91;;;30.33;37.75
21273;BME280;36726;52.328;10.552;2022-07-25T09:59:03;99852.84;;;30.43;37.43
21273;BME280;36726;52.328;10.552;2022-07-25T10:01:35;99854.25;;;30.60;37.29
21273;BME280;36726;52.328;10.552;2022-07-25T10:05:13;99853.09;;;30.74;36.59
21273;BME280;36726;52.328;10.552;2022-07-25T10:07:14;99850.66;;;30.82;36.84
21273;BME280;36726;52.328;10.552;2022-07-25T10:09:47;99843.56;;;30.90;36.96
21273;BME280;36726;52.328;10.552;2022-07-25T10:12:18;99832.84;;;31.09;36.64
21273;BME280;36726;52.328;10.552;2022-07-25T10:17:31;99839.53;;;31.16;35.87
21273;BME280;36726;52.328;10.552;2022-07-25T10:19:57;99827.84;;;31.25;36.29
21273;BME280;36726;52.328;10.552;2022-07-25T10:22:41;99822.50;;;31.35;35.60
21273;BME280;36726;52.328;10.552;2022-07-25T10:25:24;99808.94;;;31.44;35.85
21273;BME280;36726;52.328;10.552;2022-07-25T10:27:57;99812.13;;;31.49;35.12
21273;BME280;36726;52.328;10.552;2022-07-25T10:30:37;99813.47;;;31.55;35.29
21273;BME280;36726;52.328;10.552;2022-07-25T10:33:15;99803.41;;;31.55;34.89
21273;BME280;36726;52.328;10.552;2022-07-25T10:35:43;99803.47;;;31.65;34.58
21273;BME280;36726;52.328;10.552;2022-07-25T10:38:10;99805.31;;;31.76;34.93
21273;BME280;36726;52.328;10.552;2022-07-25T10:40:41;99802.75;;;31.84;34.57
21273;BME280;36726;52.328;10.552;2022-07-25T10:43:11;99802.31;;;31.99;35.20
21273;BME280;36726;52.328;10.552;2022-07-25T10:45:47;99800.09;;;32.14;34.23
21273;BME280;36726;52.328;10.552;2022-07-25T10:48:31;99800.38;;;32.31;33.85
21273;BME280;36726;52.328;10.552;2022-07-25T10:51:03;99809.72;;;32.49;33.39
21273;BME280;36726;52.328;10.552;2022-07-25T10:56:16;99789.47;;;32.71;32.88
21273;BME280;36726;52.328;10.552;2022-07-25T10:58:50;99788.91;;;32.77;32.27
21273;BME280;36726;52.328;10.552;2022-07-25T11:01:29;99802.59;;;32.77;32.02
21273;BME280;36726;52.328;10.552;2022-07-25T11:03:59;99800.78;;;32.87;32.31
21273;BME280;36726;52.328;10.552;2022-07-25T11:06:39;99799.22;;;32.94;32.64
21273;BME280;36726;52.328;10.552;2022-07-25T11:09:20;99792.47;;;32.98;32.16
21273;BME280;36726;52.328;10.552;2022-07-25T11:11:55;99784.69;;;33.03;32.22
21273;BME280;36726;52.328;10.552;2022-07-25T11:14:39;99782.69;;;33.05;31.99
21273;BME280;36726;52.328;10.552;2022-07-25T11:17:19;99784.94;;;33.00;33.29
21273;BME280;36726;52.328;10.552;2022-07-25T11:19:58;99783.53;;;32.96;32.37
21273;BME280;36726;52.328;10.552;2022-07-25T11:22:26;99775.97;;;32.89;31.90
21273;BME280;36726;52.328;10.552;2022-07-25T11:24:54;99776.56;;;32.92;32.82
21273;BME280;36726;52.328;10.552;2022-07-25T11:27:30;99773.56;;;32.95;33.17
21273;BME280;36726;52.328;10.552;2022-07-25T11:30:12;99772.28;;;32.99;32.45
21273;BME280;36726;52.328;10.552;2022-07-25T11:32:52;99764.91;;;33.09;33.19
21273;BME280;36726;52.328;10.552;2022-07-25T11:35:25;99762.19;;;33.09;32.29
21273;BME280;36726;52.328;10.552;2022-07-25T11:37:52;99757.88;;;33.07;32.10
21273;BME280;36726;52.328;10.552;2022-07-25T11:40:20;99758.59;;;33.09;32.29
21273;BME280;36726;52.328;10.552;2022-07-25T11:45:22;99747.47;;;33.10;31.87
21273;BME280;36726;52.328;10.552;2022-07-25T11:48:11;99747.63;;;33.18;32.60
21273;BME280;36726;52.328;10.552;2022-07-25T11:50:41;99734.94;;;33.27;32.57
21273;BME280;36726;52.328;10.552;2022-07-25T11:53:13;99736.50;;;33.29;32.49
21273;BME280;36726;52.328;10.552;2022-07-25T11:55:41;99726.13;;;33.42;32.61
21273;BME280;36726;52.328;10.552;2022-07-25T11:58:09;99724.69;;;33.67;32.09
21273;BME280;36726;52.328;10.552;2022-07-25T12:00:47;99710.81;;;33.78;31.78
21273;BME280;36726;52.328;10.552;2022-07-25T12:03:16;99705.88;;;33.82;32.08
21273;BME280;36726;52.328;10.552;2022-07-25T12:05:46;99714.97;;;33.92;30.88
21273;BME280;36726;52.328;10.552;2022-07-25T12:08:15;99726.09;;;34.00;30.19
21273;BME280;36726;52.328;10.552;2022-07-25T12:10:43;99725.91;;;34.11;29.32
21273;BME280;36726;52.328;10.552;2022-07-25T12:13:28;99711.69;;;34.25;29.91
21273;BME280;36726;52.328;10.552;2022-07-25T12:15:58;99716.97;;;34.45;30.04
21273;BME280;36726;52.328;10.552;2022-07-25T12:18:26;99715.91;;;34.56;29.04
21273;BME280;36726;52.328;10.552;2022-07-25T12:20:53;99714.28;;;34.63;28.33
21273;BME280;36726;52.328;10.552;2022-07-25T12:23:19;99708.22;;;34.60;28.96
21273;BME280;36726;52.328;10.552;2022-07-25T12:25:47;99707.38;;;34.59;29.34
21273;BME280;36726;52.328;10.552;2022-07-25T12:28:14;99705.47;;;34.60;29.62
21273;BME280;36726;52.328;10.552;2022-07-25T12:30:42;99705.03;;;34.64;29.23
21273;BME280;36726;52.328;10.552;2022-07-25T12:33:09;99703.25;;;34.73;30.18
21273;BME280;36726;52.328;10.552;2022-07-25T12:35:36;99703.41;;;34.71;29.88
21273;BME280;36726;52.328;10.552;2022-07-25T12:38:04;99705.88;;;34.65;29.68
21273;BME280;36726;52.328;10.552;2022-07-25T12:40:30;99710.78;;;34.71;29.78
21273;BME280;36726;52.328;10.552;2022-07-25T12:42:57;99710.00;;;34.78;29.46
21273;BME280;36726;52.328;10.552;2022-07-25T12:45:24;99696.03;;;34.89;29.61
21273;BME280;36726;52.328;10.552;2022-07-25T12:47:51;99699.06;;;34.96;29.51
21273;BME280;36726;52.328;10.552;2022-07-25T12:50:18;99708.13;;;35.06;30.10
21273;BME280;36726;52.328;10.552;2022-07-25T12:52:45;99699.75;;;35.15;29.95
21273;BME280;36726;52.328;10.552;2022-07-25T12:55:16;99692.31;;;35.08;29.82
21273;BME280;36726;52.328;10.552;2022-07-25T12:57:44;99696.16;;;34.97;30.00
21273;BME280;36726;52.328;10.552;2022-07-25T13:00:14;99701.38;;;34.91;30.09
21273;BME280;36726;52.328;10.552;2022-07-25T13:02:40;99703.91;;;34.84;28.96
21273;BME280;36726;52.328;10.552;2022-07-25T13:05:07;99705.06;;;34.82;29.07
21273;BME280;36726;52.328;10.552;2022-07-25T13:07:35;99707.31;;;34.69;28.51